AirNav   Bose Proflight Series 2 Wireless Aviation Headset
 
 1398 users online  

2J5 Millen Airport
Millen, Georgia, USA

GOING TO MILLEN?


FAA INFORMATION EFFECTIVE 07 NOVEMBER 2019

Location

FAA Identifier: 2J5
Lat/Long: 32-53-34.9000N 081-57-54.8000W
32-53.581667N 081-57.913333W
32.8930278,-81.9652222
(estimated)
Elevation: 240.4 ft. / 73.3 m (surveyed)
Variation: 05W (2000)
From city: 5 miles N of MILLEN, GA
Time zone: UTC -5 (UTC -4 during Daylight Saving Time)
Zip code: 30822

Airport Operations

Airport use: Open to the public
Activation date: 08/1967
Control tower: no
ARTCC: ATLANTA CENTER
FSS: MACON FLIGHT SERVICE STATION
NOTAMs facility: MCN (NOTAM-D service available)
Attendance: UNATNDD
Wind indicator: lighted
Segmented circle: yes
Lights: DUSK-2200. MIRL, REIL AND PAPI RY 17/35 OPERATES DUSK-2200; AFTER 2200 ACTVT - CTAF.
Beacon: white-green (lighted land airport)
Operates sunset to sunrise.

Airport Communications

CTAF: 122.9
WX AWOS-3PT: 120.2 (478-982-4562)
AUGUSTA APPROACH: 126.8
AUGUSTA DEPARTURE: 126.8

Nearby radio navigation aids

VOR radial/distance  VOR name  Freq  Var
ALDr259/(34.6)ALLENDALE VOR116.7001W

 
NDB name  Hdg/Dist  Freq  Var  ID
SYLVANIA312/23.824504WJYL .--- -.-- .-..
EMANUEL COUNTY067/28.130906WEEX . . -..-
EMORY181/34.238504WEMR . -- .-.

Airport Services

Fuel available: 100LL JET-A
Parking: tiedowns
Airframe service: NONE
Powerplant service: NONE
Bottled oxygen: NONE
Bulk oxygen: NONE

Runway Information

Runway 17/35

Dimensions: 5001 x 75 ft. / 1524 x 23 m
Surface: asphalt, in good condition
Weight bearing capacity: 
Single wheel: 16.5
Runway edge lights: medium intensity
RUNWAY 17  RUNWAY 35
Latitude: 32-53.983643N32-53.178385N
Longitude: 081-58.018257W081-57.807823W
Elevation: 240.3 ft.221.2 ft.
Traffic pattern: rightleft
Runway heading: 173 magnetic, 168 true353 magnetic, 348 true
Markings: nonprecision, in good conditionnonprecision, in good condition
Visual slope indicator: 2-light PAPI on right (3.00 degrees glide path)2-light PAPI on left (3.00 degrees glide path)
Runway end identifier lights: yesyes
Touchdown point: yes, no lightsyes, no lights

Airport Ownership and Management from official FAA records

Ownership: Publicly-owned
Owner: JENKINS CO
PO BOX 797
MILLEN, GA 30442
Phone 478-982-2563
Manager: GRADY LANE
PO BOX 797
MILLEN, GA 30442
Phone 706-871-8432

Airport Operational Statistics

Aircraft based on the field: 12
Single engine airplanes: 12
    
Aircraft operations: avg 38/week *
50% transient general aviation
50% local general aviation
* for 12-month period ending 31 December 2017

Additional Remarks

DEER ON & INVOF ARPT.
FOR CD CTC ATLANTA ARTCC AT 770-210-7692.

Instrument Procedures

NOTE: All procedures below are presented as PDF files. If you need a reader for these files, you should download the free Adobe Reader.

NOT FOR NAVIGATION. Please procure official charts for flight.
FAA instrument procedures published for use from 07 November 2019 at 0901Z to 05 December 2019 at 0900Z.

 
IAPs - Instrument Approach Procedures
RNAV (GPS) RWY 17   download (197KB)
RNAV (GPS) RWY 35   download (212KB)
NOTE: Special Alternate Minimums apply   download (68KB)
NOTE: Special Take-Off Minimums/Departure Procedures apply   download (286KB)

Other nearby airports with instrument procedures:

KBXG - Burke County Airport (9 nm N)
2J3 - Louisville Municipal Airport (22 nm W)
KJYL - Plantation Airpark (24 nm SE)
KSBO - East Georgia Regional Airport (27 nm SW)
KTBR - Statesboro-Bulloch County Airport (27 nm SE)
 
Loc | Ops | Rwys | IFR | FBO | Links
Com | Nav | Svcs | Stats | Notes
Area around 2J5 (Millen Airport)
 
Road maps at: MapQuest Bing Google
 
Aerial photo
WARNING: Photo may not be current or correct
Aerial photo of 2J5 (Millen Airport)
Photo taken 27-Sep-2016
looking north.

Do you have a better or more recent aerial photo of Millen Airport that you would like to share? If so, please send us your photo.

 
Sectional chart

 
Airport distance calculator
Flying to Millen Airport? Find the distance to fly.

From to 2J5

Sunrise and sunset
Times for 14-Nov-2019
 Local
(UTC-5)
 Zulu
(UTC)
Morning civil twilight06:3211:32
Sunrise06:5811:58
Sunset17:2622:26
Evening civil twilight17:5222:52

Current date and time
Zulu (UTC)  14-Nov-2019 19:08:17
Local (UTC-5)  14-Nov-2019 14:08:17
 
METAR
K2J3 
22nm W 
141850Z AUTO 04005KT 10SM OVC015 07/01 A3027 RMK AO2 T00700007
KJYL 
24nm SE 
141855Z AUTO 01005KT 10SM OVC015 09/03 A3027 RMK AO2 T00900029
KSBO 
27nm SW 
141850Z AUTO 04006KT 10SM OVC015 08/02 A3026 RMK AO2
KTBR 
27nm SE 
141855Z AUTO 35008KT 10SM OVC015 09/03 A3026 RMK AO2 T00880027 TSNO
KAGS 
28nm N 
141853Z 01009KT 10SM OVC018 09/00 A3027 RMK AO2 SLP251 T00890000
KMHP 
32nm S 
141855Z AUTO 03006KT 10SM OVC016 09/03 A3024 RMK AO2 T00900032
KDNL 
35nm N 
141853Z AUTO 03004KT 10SM OVC016 08/M01 A3028 RMK AO2 SLP255 T00831006
KAQX 
36nm E 
141855Z AUTO 36007KT 10SM OVC016 07/01 A3027 RMK AO2
KBNL 
36nm NE 
141855Z AUTO 02006G11KT 10SM FEW008 OVC014 04/03 A3029 RMK AO2
KCWV 
42nm S 
141855Z AUTO 02006KT 7SM OVC014 11/05 A3025 RMK AO2 T01050051
TAF
KAGS 
28nm N 
141736Z 1418/1518 02009KT P6SM VCSH OVC025 FM142300 03007KT 5SM -RA BR OVC015 FM150400 02006KT 4SM -RA BR BKN007 OVC015 FM151200 03008KT 2SM RA BR SCT003 OVC007
KDNL 
35nm N 
141736Z 1418/1518 03008KT P6SM VCSH OVC015 FM142300 03007KT 5SM -RA BR OVC015 FM150400 02006KT 4SM -RA BR BKN007 OVC015 FM151200 03008KT 2SM RA BR SCT003 OVC007
NOTAMs
Click for the latest NOTAMs
NOTAMs are issued by the DoD/FAA and will open in a separate window not controlled by AirNav.

 

 
 

FBO, Fuel Providers, and Aircraft Ground Support

  
 Business Name 
 
 Contact 
 
 Services / Description 
 
Fuel Prices
 
Comments
  
Millen-Jenkins County Airport 478-982-2563
478-982-2626
[email]
Aviation fuel, Aircraft parking (ramp or tiedown), Hangar leasing / sales, Restrooms

More info about Millen-Jenkins County Airport
100LL Jet A
SS $3.99 $3.49 
 Updated 13-Nov-2019
 
   1 read write
SS=Self service
Update Fuel Prices
 

Would you like to see your business listed on this page?

 If your business provides an interesting product or service to pilots, flight crews, aircraft, or users of the Millen Airport, you should consider listing it here.  To start the listing process, click on the button below
 
Add a business
 

Other Pages about Millen Airport

jcmservices.net/2j5info.htm
 
Update a link
 
Copyright © AirNav, LLC. All rights reserved. Privacy Policy  Contact